createdAt,value
2019-03-08T00:00:10.552Z,5.40
2019-03-08T00:02:39.328Z,5.40
2019-03-08T00:05:08.767Z,5.40
2019-03-08T00:07:37.739Z,5.40
2019-03-08T00:10:06.493Z,5.40
2019-03-08T00:12:35.346Z,5.40
2019-03-08T00:15:05.191Z,5.40
2019-03-08T00:17:35.334Z,5.40
2019-03-08T00:20:05.950Z,5.40
2019-03-08T00:22:34.778Z,5.40
2019-03-08T00:25:04.815Z,5.40
2019-03-08T00:27:34.509Z,5.50
2019-03-08T00:30:03.185Z,5.50
2019-03-08T00:32:32.024Z,5.50
2019-03-08T00:35:01.748Z,5.50
2019-03-08T00:37:30.481Z,5.50
2019-03-08T00:39:59.386Z,5.50
2019-03-08T00:42:28.299Z,5.60
2019-03-08T00:45:01.638Z,5.60
2019-03-08T00:47:30.818Z,5.60
2019-03-08T00:50:00.700Z,5.60
2019-03-08T00:52:29.866Z,5.60
2019-03-08T00:54:58.834Z,5.60
2019-03-08T00:57:29.507Z,5.60
2019-03-08T00:59:58.408Z,5.70
2019-03-08T01:02:27.971Z,5.70
2019-03-08T01:04:56.620Z,5.70
2019-03-08T01:07:26.573Z,5.70
2019-03-08T01:09:55.294Z,5.80
2019-03-08T01:12:24.035Z,5.80
2019-03-08T01:14:52.938Z,5.80
2019-03-08T01:17:22.204Z,5.80
2019-03-08T01:19:51.237Z,5.80
2019-03-08T01:22:20.251Z,5.80
2019-03-08T01:24:49.247Z,5.80
2019-03-08T01:27:18.657Z,5.70
2019-03-08T01:29:48.007Z,5.80
2019-03-08T01:32:17.378Z,5.80
2019-03-08T01:34:47.096Z,5.80
2019-03-08T01:37:16.284Z,5.90
2019-03-08T01:39:45.186Z,5.80
2019-03-08T01:42:14.251Z,5.80
2019-03-08T01:44:44.186Z,5.90
2019-03-08T01:47:13.414Z,5.90
2019-03-08T01:49:42.718Z,5.90
2019-03-08T01:52:11.842Z,6.00
2019-03-08T01:54:41.159Z,6.00
2019-03-08T01:57:10.062Z,6.00
2019-03-08T01:59:39.083Z,6.10
2019-03-08T02:02:08.157Z,6.10
2019-03-08T02:04:37.409Z,6.10
2019-03-08T02:07:07.249Z,6.10
2019-03-08T02:09:36.244Z,6.10
2019-03-08T02:12:05.835Z,6.10
2019-03-08T02:14:35.199Z,6.10
2019-03-08T02:17:04.402Z,6.10
2019-03-08T02:19:33.823Z,6.10
2019-03-08T02:22:03.202Z,6.10
2019-03-08T02:24:33.345Z,6.10
2019-03-08T02:27:02.658Z,6.00
2019-03-08T02:29:31.938Z,6.00
2019-03-08T02:32:01.336Z,6.00
2019-03-08T02:34:32.846Z,6.00
2019-03-08T02:37:01.818Z,6.00
2019-03-08T02:39:31.091Z,5.90
2019-03-08T02:42:00.402Z,5.80
2019-03-08T02:44:30.513Z,5.80
2019-03-08T02:47:00.924Z,5.80
2019-03-08T02:49:30.238Z,5.80
2019-03-08T02:51:59.245Z,5.80
2019-03-08T02:54:28.349Z,5.80
2019-03-08T02:56:57.425Z,5.70
2019-03-08T02:59:26.663Z,5.70
2019-03-08T03:01:55.592Z,5.70
2019-03-08T03:04:24.643Z,5.70
2019-03-08T03:06:53.945Z,5.60
2019-03-08T03:09:23.097Z,5.60
2019-03-08T03:11:52.176Z,5.60
2019-03-08T03:14:21.397Z,5.60
2019-03-08T03:16:50.472Z,5.60
2019-03-08T03:19:19.602Z,5.60
2019-03-08T03:21:48.924Z,5.60
2019-03-08T03:24:18.235Z,5.70
2019-03-08T03:26:47.171Z,5.60
2019-03-08T03:29:16.028Z,5.70
2019-03-08T03:31:45.192Z,5.70
2019-03-08T03:34:14.118Z,5.80
2019-03-08T03:36:43.412Z,5.80
2019-03-08T03:39:12.438Z,5.80
2019-03-08T03:41:41.492Z,5.80
2019-03-08T03:44:10.750Z,5.90
2019-03-08T03:46:39.664Z,5.90
2019-03-08T03:49:08.730Z,5.90
2019-03-08T03:51:37.643Z,5.90
2019-03-08T03:54:06.674Z,5.90
2019-03-08T03:56:35.682Z,5.90
2019-03-08T03:59:04.910Z,5.90
2019-03-08T04:01:35.507Z,5.90
2019-03-08T04:04:04.930Z,5.90
2019-03-08T04:06:34.235Z,5.90
2019-03-08T04:09:04.917Z,5.90
2019-03-08T04:11:34.063Z,5.80
2019-03-08T04:14:03.497Z,5.80
2019-03-08T04:16:33.735Z,5.80
2019-03-08T04:19:02.847Z,5.80
2019-03-08T04:21:32.427Z,5.90
2019-03-08T04:24:01.815Z,5.90
2019-03-08T04:26:31.565Z,5.90
2019-03-08T04:29:00.723Z,5.90
2019-03-08T04:31:29.879Z,5.90
2019-03-08T04:33:58.933Z,5.90
2019-03-08T04:36:28.103Z,5.90
2019-03-08T04:38:57.281Z,5.90
2019-03-08T04:41:26.611Z,5.80
2019-03-08T04:43:55.687Z,5.80
2019-03-08T04:46:24.827Z,5.80
2019-03-08T04:48:53.835Z,5.80
2019-03-08T04:51:23.430Z,5.80
2019-03-08T04:53:52.844Z,5.80
2019-03-08T04:56:22.576Z,5.80
2019-03-08T04:58:52.288Z,5.80
2019-03-08T05:01:21.751Z,5.80
2019-03-08T05:03:51.565Z,5.80
2019-03-08T05:06:20.839Z,5.80
2019-03-08T05:08:50.378Z,5.80
2019-03-08T05:11:19.833Z,5.80
2019-03-08T05:13:49.012Z,5.80
2019-03-08T05:16:18.697Z,5.80
2019-03-08T05:18:48.286Z,5.80
2019-03-08T05:21:17.528Z,5.80
2019-03-08T05:23:46.639Z,5.80
2019-03-08T05:26:16.219Z,5.80
2019-03-08T05:28:45.470Z,5.70
2019-03-08T05:31:14.536Z,5.70
2019-03-08T05:33:44.028Z,5.70
2019-03-08T05:36:13.182Z,5.70
2019-03-08T05:38:42.568Z,5.70
2019-03-08T05:41:12.174Z,5.60
2019-03-08T05:43:41.629Z,5.60
2019-03-08T05:46:10.888Z,5.60
2019-03-08T05:48:40.167Z,5.60
2019-03-08T05:51:09.578Z,5.60
2019-03-08T05:53:38.828Z,5.60
2019-03-08T05:56:08.534Z,5.60
2019-03-08T05:58:37.674Z,5.70
2019-03-08T06:01:07.218Z,5.70
2019-03-08T06:03:36.396Z,5.70
2019-03-08T06:06:06.246Z,5.80
2019-03-08T06:08:35.605Z,5.90
2019-03-08T06:11:05.510Z,6.00
2019-03-08T06:13:34.968Z,6.10
2019-03-08T06:16:04.938Z,6.20
2019-03-08T06:18:34.297Z,6.20
2019-03-08T06:21:02.654Z,6.00
2019-03-08T06:23:31.312Z,5.90
2019-03-08T06:26:01.089Z,5.80
2019-03-08T06:28:30.144Z,5.80
2019-03-08T06:30:59.658Z,5.80
2019-03-08T06:33:29.468Z,5.70
2019-03-08T06:35:58.734Z,5.70
2019-03-08T06:38:28.211Z,5.70
2019-03-08T06:40:57.607Z,5.70
2019-03-08T06:43:26.923Z,5.80
2019-03-08T06:45:56.462Z,5.80
2019-03-08T06:48:26.112Z,6.00
2019-03-08T06:50:55.629Z,6.10
2019-03-08T06:53:24.817Z,6.20
2019-03-08T06:55:54.184Z,6.30
2019-03-08T06:58:33.809Z,6.30
2019-03-08T07:01:04.638Z,6.40
2019-03-08T07:03:33.957Z,6.40
2019-03-08T07:06:03.061Z,6.30
2019-03-08T07:08:32.611Z,6.30
2019-03-08T07:11:02.122Z,6.30
2019-03-08T07:13:31.721Z,6.40
2019-03-08T07:16:01.391Z,6.40
2019-03-08T07:18:30.861Z,6.40
2019-03-08T07:21:03.317Z,6.50
2019-03-08T07:23:40.723Z,6.50
2019-03-08T07:26:11.842Z,6.60
2019-03-08T07:28:49.262Z,6.70
2019-03-08T07:31:29.057Z,6.80
2019-03-08T07:34:05.501Z,7.00
2019-03-08T07:36:52.980Z,7.00
2019-03-08T07:39:32.338Z,7.10
2019-03-08T07:42:12.081Z,7.20
2019-03-08T07:44:59.513Z,7.30
2019-03-08T07:47:43.296Z,7.40
2019-03-08T07:50:32.765Z,7.50
2019-03-08T07:53:21.118Z,7.60
2019-03-08T07:55:54.691Z,7.60
2019-03-08T07:58:28.874Z,7.60
2019-03-08T08:00:59.797Z,7.70
2019-03-08T08:03:35.412Z,7.60
2019-03-08T08:06:06.282Z,7.50
2019-03-08T08:08:39.793Z,7.30
2019-03-08T08:11:10.769Z,7.20
2019-03-08T08:13:47.474Z,7.20
2019-03-08T08:16:29.961Z,7.30
2019-03-08T08:19:03.462Z,7.30
2019-03-08T08:21:37.484Z,7.30
2019-03-08T08:24:08.177Z,7.30
2019-03-08T08:26:53.614Z,7.30
2019-03-08T08:29:40.956Z,7.30
2019-03-08T08:32:28.121Z,7.30
2019-03-08T08:35:15.567Z,7.30
2019-03-08T08:38:03.874Z,7.30
2019-03-08T08:40:49.472Z,7.20
2019-03-08T08:43:37.334Z,7.10
2019-03-08T08:46:07.773Z,7.10
2019-03-08T08:48:38.105Z,7.10
2019-03-08T08:51:25.456Z,7.10
2019-03-08T08:54:01.476Z,7.10
2019-03-08T08:56:34.397Z,7.10
2019-03-08T08:59:10.588Z,7.10
2019-03-08T09:01:50.671Z,7.20
2019-03-08T09:04:33.928Z,7.20
2019-03-08T09:07:07.198Z,7.20
2019-03-08T09:09:44.356Z,7.10
2019-03-08T09:12:15.316Z,7.20
2019-03-08T09:14:54.788Z,7.20
2019-03-08T09:17:31.507Z,7.20
2019-03-08T09:20:20.730Z,7.20
2019-03-08T09:22:57.280Z,7.20
2019-03-08T09:25:31.415Z,7.20
2019-03-08T09:28:19.049Z,7.20
2019-03-08T09:31:08.737Z,7.20
2019-03-08T09:33:48.760Z,7.20
2019-03-08T09:36:19.200Z,7.20
2019-03-08T09:38:56.194Z,7.20
2019-03-08T09:47:14.269Z,7.20
2019-03-08T09:49:44.469Z,7.20
2019-03-08T09:52:15.753Z,7.20
2019-03-08T09:54:49.350Z,7.20
2019-03-08T09:57:23.134Z,7.20
2019-03-08T10:00:09.416Z,7.30
2019-03-08T10:02:42.679Z,7.40
2019-03-08T10:05:25.021Z,7.30
2019-03-08T10:08:11.244Z,7.30
2019-03-08T10:10:44.095Z,7.30
2019-03-08T10:13:35.053Z,7.20
2019-03-08T10:16:08.135Z,7.20
2019-03-08T10:18:53.429Z,7.20
2019-03-08T10:21:39.547Z,7.20
2019-03-08T10:24:16.450Z,7.20
2019-03-08T10:26:46.757Z,7.20
2019-03-08T10:29:25.693Z,7.20
2019-03-08T10:31:55.905Z,7.30
2019-03-08T10:34:40.591Z,7.50
2019-03-08T10:37:10.834Z,7.60
2019-03-08T10:39:53.173Z,7.70
2019-03-08T10:42:23.387Z,7.90
2019-03-08T10:44:52.728Z,8.10
2019-03-08T10:47:25.179Z,8.30
2019-03-08T10:49:58.361Z,8.40
2019-03-08T10:52:37.249Z,8.60
2019-03-08T10:55:24.884Z,8.90
2019-03-08T10:57:54.388Z,9.30
2019-03-08T11:00:24.120Z,9.80
2019-03-08T11:02:59.222Z,10.10
2019-03-08T11:05:28.804Z,10.40
2019-03-08T11:08:03.836Z,10.50
2019-03-08T11:10:42.979Z,10.60
2019-03-08T11:13:30.987Z,10.50
2019-03-08T11:16:06.967Z,10.30
2019-03-08T11:18:53.265Z,10.10
2019-03-08T11:21:39.130Z,9.80
2019-03-08T11:24:18.251Z,9.60
2019-03-08T11:26:51.428Z,9.30
2019-03-08T11:29:27.424Z,9.20
2019-03-08T11:32:03.088Z,9.00
2019-03-08T11:34:33.373Z,9.00
2019-03-08T11:37:04.329Z,9.00
2019-03-08T11:39:46.652Z,9.00
2019-03-08T11:42:22.984Z,9.00
2019-03-08T11:45:02.193Z,9.20
2019-03-08T11:47:31.656Z,9.20
2019-03-08T11:50:01.886Z,9.10
2019-03-08T11:52:41.002Z,9.10
2019-03-08T11:55:27.034Z,9.00
2019-03-08T11:57:56.491Z,8.90
2019-03-08T12:00:31.546Z,8.80
2019-03-08T12:03:01.006Z,8.70
2019-03-08T12:05:45.562Z,8.60
2019-03-08T12:08:18.732Z,8.60
2019-03-08T12:11:00.682Z,8.70
2019-03-08T12:13:46.926Z,8.80
2019-03-08T12:16:19.013Z,8.90
2019-03-08T12:18:58.041Z,9.10
2019-03-08T12:21:31.169Z,9.20
2019-03-08T12:24:04.070Z,9.40
2019-03-08T12:26:35.534Z,9.30
2019-03-08T12:29:26.845Z,9.20
2019-03-08T12:32:15.035Z,9.20
2019-03-08T12:34:54.201Z,9.20
2019-03-08T12:37:24.702Z,9.20
2019-03-08T12:39:55.544Z,9.30
2019-03-08T12:42:37.447Z,9.30
2019-03-08T12:45:10.765Z,9.40
2019-03-08T12:47:44.002Z,9.30
2019-03-08T12:50:16.903Z,9.10
2019-03-08T12:52:56.091Z,8.80
2019-03-08T12:55:27.462Z,8.60
2019-03-08T12:58:00.807Z,8.40
2019-03-08T13:00:31.171Z,8.20
2019-03-08T13:03:04.305Z,8.00
2019-03-08T13:05:34.595Z,7.80
2019-03-08T13:08:10.669Z,7.50
2019-03-08T13:10:39.431Z,7.30
2019-03-08T13:13:08.108Z,7.00
2019-03-08T13:15:36.775Z,6.80
2019-03-08T13:18:05.671Z,6.60
2019-03-08T13:20:34.413Z,6.40
2019-03-08T13:23:04.802Z,6.20
2019-03-08T13:25:33.430Z,6.10
2019-03-08T13:28:02.093Z,6.10
2019-03-08T13:30:31.224Z,6.00
2019-03-08T13:33:00.131Z,6.00
2019-03-08T13:35:29.015Z,6.00
2019-03-08T13:37:59.318Z,6.00
2019-03-08T13:40:28.059Z,6.00
2019-03-08T13:42:56.751Z,6.10
2019-03-08T13:45:25.509Z,6.10
2019-03-08T13:47:54.110Z,6.10
2019-03-08T13:50:22.784Z,6.20
2019-03-08T13:52:51.465Z,6.30
2019-03-08T13:55:20.710Z,6.50
2019-03-08T13:57:49.313Z,6.60
2019-03-08T14:00:19.172Z,6.70
2019-03-08T14:02:47.751Z,6.70
2019-03-08T14:05:16.697Z,6.90
2019-03-08T14:07:45.255Z,7.00
2019-03-08T14:10:22.674Z,7.00
2019-03-08T14:12:51.221Z,7.00
2019-03-08T14:15:19.741Z,6.80
2019-03-08T14:17:48.256Z,6.70
2019-03-08T14:20:19.694Z,6.50
2019-03-08T14:22:48.224Z,6.40
2019-03-08T14:25:16.769Z,6.40
2019-03-08T14:27:45.873Z,6.30
2019-03-08T14:30:20.750Z,6.20
2019-03-08T14:32:49.205Z,6.20
2019-03-08T14:35:17.805Z,6.10
2019-03-08T14:37:46.331Z,6.10
2019-03-08T14:40:33.598Z,6.00
2019-03-08T14:43:05.608Z,6.00
2019-03-08T14:45:50.893Z,6.00
2019-03-08T14:48:19.363Z,6.00
2019-03-08T14:50:47.829Z,6.00
2019-03-08T14:53:16.584Z,6.00
2019-03-08T14:55:45.128Z,6.10
2019-03-08T14:58:13.675Z,6.10
2019-03-08T15:00:42.166Z,6.10
2019-03-08T15:03:10.763Z,6.10
2019-03-08T15:05:39.234Z,6.10
2019-03-08T15:08:07.882Z,6.10
2019-03-08T15:10:39.641Z,6.10
2019-03-08T15:13:06.688Z,6.10
2019-03-08T15:15:35.171Z,6.10
2019-03-08T15:18:03.705Z,6.10
2019-03-08T15:20:32.448Z,6.20
2019-03-08T15:23:00.980Z,6.30
2019-03-08T15:25:31.495Z,6.30
2019-03-08T15:28:00.425Z,6.30
2019-03-08T15:30:30.013Z,6.30
2019-03-08T15:32:58.749Z,6.20
2019-03-08T15:35:27.382Z,6.20
2019-03-08T15:37:55.920Z,6.10
2019-03-08T15:40:24.616Z,6.10
2019-03-08T15:42:53.321Z,6.10
2019-03-08T15:45:21.995Z,6.00
2019-03-08T15:47:50.517Z,6.00
2019-03-08T15:50:20.297Z,5.90
2019-03-08T15:52:51.225Z,5.80
2019-03-08T15:55:19.375Z,5.80
2019-03-08T15:57:47.990Z,5.70
2019-03-08T16:00:21.307Z,5.70
2019-03-08T16:02:50.161Z,5.70
2019-03-08T16:05:19.611Z,5.60
2019-03-08T16:07:48.228Z,5.60
2019-03-08T16:10:23.639Z,5.50
2019-03-08T16:12:52.359Z,5.50
2019-03-08T16:15:21.053Z,5.40
2019-03-08T16:17:49.701Z,5.40
2019-03-08T16:20:23.964Z,5.30
2019-03-08T16:22:52.431Z,5.30
2019-03-08T16:25:20.970Z,5.20
2019-03-08T16:27:50.206Z,5.20
2019-03-08T16:30:29.288Z,5.10
2019-03-08T16:33:17.791Z,5.10
2019-03-08T16:35:50.576Z,5.10
2019-03-08T16:38:20.475Z,5.10
2019-03-08T16:40:59.169Z,5.10
2019-03-08T16:43:29.087Z,5.20
2019-03-08T16:45:59.187Z,5.20
2019-03-08T16:48:44.198Z,5.20
2019-03-08T16:51:19.017Z,5.20
2019-03-08T16:53:49.069Z,5.10
2019-03-08T16:56:24.779Z,5.10
2019-03-08T16:58:55.016Z,5.00
2019-03-08T17:01:34.246Z,5.00
2019-03-08T17:04:04.406Z,4.90
2019-03-08T17:06:42.523Z,4.90
2019-03-08T17:09:18.986Z,4.90
2019-03-08T17:12:04.836Z,4.90
2019-03-08T17:14:51.992Z,4.80
2019-03-08T17:17:37.178Z,4.80
2019-03-08T17:20:12.614Z,4.70
2019-03-08T17:22:51.015Z,4.70
2019-03-08T17:25:25.881Z,4.70
2019-03-08T17:28:04.532Z,4.60
2019-03-08T17:30:40.319Z,4.60
2019-03-08T17:33:20.543Z,4.50
2019-03-08T17:35:56.645Z,4.50
2019-03-08T17:38:31.815Z,4.40
2019-03-08T17:41:01.678Z,4.30
2019-03-08T17:43:31.368Z,4.20
2019-03-08T17:46:00.692Z,4.10
2019-03-08T17:48:30.035Z,4.00
2019-03-08T17:51:16.101Z,4.00
2019-03-08T17:53:48.257Z,3.90
2019-03-08T17:56:20.342Z,3.90
2019-03-08T17:58:55.494Z,3.80
2019-03-08T18:01:37.435Z,3.80
2019-03-08T18:04:09.409Z,3.80
2019-03-08T18:06:38.936Z,3.70
2019-03-08T18:09:14.091Z,3.70
2019-03-08T18:11:56.091Z,3.60
2019-03-08T18:14:28.283Z,3.70
2019-03-08T18:16:57.768Z,3.70
2019-03-08T18:19:27.120Z,3.70
2019-03-08T18:21:59.234Z,3.70
2019-03-08T18:24:34.584Z,3.70
2019-03-08T18:27:08.138Z,3.70
2019-03-08T18:29:37.544Z,3.70
2019-03-08T18:32:12.738Z,3.70
2019-03-08T18:34:42.141Z,3.70
2019-03-08T18:37:14.241Z,3.60
2019-03-08T18:40:00.475Z,3.60
2019-03-08T18:42:33.377Z,3.60
2019-03-08T18:45:18.279Z,3.60
2019-03-08T18:48:07.313Z,3.50
2019-03-08T18:50:41.297Z,3.50
2019-03-08T18:53:14.511Z,3.50
2019-03-08T18:56:01.008Z,3.40
2019-03-08T18:58:37.198Z,3.50
2019-03-08T19:01:23.691Z,3.40
2019-03-08T19:04:05.682Z,3.40
2019-03-08T19:06:42.591Z,3.40
2019-03-08T19:09:12.769Z,3.40
2019-03-08T19:12:00.753Z,3.40
2019-03-08T19:14:47.104Z,3.40
2019-03-08T19:17:35.684Z,3.40
2019-03-08T19:20:14.325Z,3.40
2019-03-08T19:22:44.531Z,3.40
2019-03-08T19:25:17.318Z,3.40
2019-03-08T19:28:05.484Z,3.40
2019-03-08T19:30:35.652Z,3.40
2019-03-08T19:33:18.077Z,3.40
2019-03-08T19:36:03.101Z,3.30
2019-03-08T19:38:47.268Z,3.30
2019-03-08T19:41:24.394Z,3.30
2019-03-08T19:44:03.108Z,3.30
2019-03-08T19:46:35.441Z,3.30
2019-03-08T19:49:13.448Z,3.30
2019-03-08T19:51:48.413Z,3.20
2019-03-08T19:54:18.675Z,3.20
2019-03-08T19:57:06.971Z,3.20
2019-03-08T19:59:39.756Z,3.20
2019-03-08T20:02:09.242Z,3.20
2019-03-08T20:04:39.431Z,3.10
2019-03-08T20:07:12.723Z,3.10
2019-03-08T20:09:42.819Z,3.10
2019-03-08T20:12:27.890Z,3.00
2019-03-08T20:14:58.408Z,3.00
2019-03-08T20:17:28.679Z,3.00
2019-03-08T20:20:07.835Z,3.00
2019-03-08T20:22:37.972Z,3.00
2019-03-08T20:25:18.701Z,3.00
2019-03-08T20:27:48.887Z,3.00
2019-03-08T20:30:37.130Z,3.10
2019-03-08T20:33:10.460Z,3.10
2019-03-08T20:35:43.856Z,3.10
2019-03-08T20:38:21.060Z,3.10
2019-03-08T20:40:54.610Z,3.10
2019-03-08T20:43:30.990Z,3.10
2019-03-08T20:46:06.777Z,3.20
2019-03-08T20:48:35.390Z,3.20
2019-03-08T20:51:04.047Z,3.20
2019-03-08T20:53:32.581Z,3.20
2019-03-08T20:56:01.070Z,3.20
2019-03-08T20:58:28.843Z,3.30
2019-03-08T21:00:56.735Z,3.30
2019-03-08T21:03:24.489Z,3.40
2019-03-08T21:05:52.385Z,3.30
2019-03-08T21:08:20.998Z,3.30
2019-03-08T21:10:49.465Z,3.30
2019-03-08T21:13:17.938Z,3.30
2019-03-08T21:15:46.420Z,3.30
2019-03-08T21:18:15.033Z,3.30
2019-03-08T21:20:43.772Z,3.20
2019-03-08T21:23:11.550Z,3.20
2019-03-08T21:25:39.270Z,3.20
2019-03-08T21:28:07.026Z,3.20
2019-03-08T21:30:34.833Z,3.20
2019-03-08T21:33:02.793Z,3.20
2019-03-08T21:35:30.670Z,3.20
2019-03-08T21:37:58.466Z,3.20
2019-03-08T21:40:26.484Z,3.30
2019-03-08T21:42:54.304Z,3.30
2019-03-08T21:45:24.001Z,3.30
2019-03-08T21:47:52.753Z,3.40
2019-03-08T21:50:20.632Z,3.40
2019-03-08T21:52:48.464Z,3.50
2019-03-08T21:55:16.187Z,3.60
2019-03-08T21:57:43.966Z,3.60
2019-03-08T22:00:15.722Z,3.60
2019-03-08T22:02:43.704Z,3.70
2019-03-08T22:05:12.267Z,3.70
2019-03-08T22:07:40.502Z,3.70
2019-03-08T22:10:11.415Z,3.70
2019-03-08T22:12:39.921Z,3.80
2019-03-08T22:15:08.632Z,3.80
2019-03-08T22:17:36.618Z,3.80
2019-03-08T22:20:06.444Z,3.80
2019-03-08T22:22:34.362Z,3.80
2019-03-08T22:25:02.227Z,3.90
2019-03-08T22:27:30.175Z,3.90
2019-03-08T22:29:58.309Z,3.90
2019-03-08T22:32:26.220Z,4.00
2019-03-08T22:34:54.444Z,4.00
2019-03-08T22:37:22.628Z,4.00
2019-03-08T22:39:50.609Z,4.10
2019-03-08T22:42:19.895Z,4.10
2019-03-08T22:44:49.181Z,4.10
2019-03-08T22:47:17.073Z,4.10
2019-03-08T22:49:45.279Z,4.10
2019-03-08T22:52:13.539Z,4.20
2019-03-08T22:54:41.715Z,4.20
2019-03-08T22:57:10.541Z,4.20
2019-03-08T22:59:38.465Z,4.30
2019-03-08T23:02:07.234Z,4.30
2019-03-08T23:04:35.397Z,4.30
2019-03-08T23:07:03.359Z,4.40
2019-03-08T23:09:32.043Z,4.40
2019-03-08T23:12:00.122Z,4.40
2019-03-08T23:14:28.765Z,4.50
2019-03-08T23:16:56.982Z,4.50
2019-03-08T23:19:25.508Z,4.60
2019-03-08T23:21:53.591Z,4.60
2019-03-08T23:24:21.618Z,4.60
2019-03-08T23:27:07.280Z,4.60
2019-03-08T23:29:39.719Z,4.60
2019-03-08T23:32:09.431Z,4.60
2019-03-08T23:34:37.532Z,4.60
2019-03-08T23:37:06.431Z,4.60
2019-03-08T23:39:35.950Z,4.60
2019-03-08T23:42:04.858Z,4.60
2019-03-08T23:44:33.586Z,4.60
2019-03-08T23:47:02.436Z,4.60
2019-03-08T23:49:31.941Z,4.60
2019-03-08T23:52:00.884Z,4.60
2019-03-08T23:54:28.788Z,4.60
2019-03-08T23:56:57.204Z,4.60
2019-03-08T23:59:25.798Z,4.60
